sensor_id;sensor_type;location;lat;lon;timestamp;P1;durP1;ratioP1;P2;durP2;ratioP2
38379;SDS011;38377;47.418;18.882;2024-01-06T00:30:38;16.77;;;11.60;;
38379;SDS011;38377;47.418;18.882;2024-01-06T00:33:12;20.77;;;12.60;;
38379;SDS011;38377;47.418;18.882;2024-01-06T00:49:54;24.55;;;13.65;;
38379;SDS011;38377;47.418;18.882;2024-01-06T00:55:46;17.70;;;11.20;;
38379;SDS011;38377;47.418;18.882;2024-01-06T00:58:11;18.98;;;10.88;;
38379;SDS011;38377;47.418;18.882;2024-01-06T01:00:38;18.10;;;11.32;;
38379;SDS011;38377;47.418;18.882;2024-01-06T01:06:42;18.63;;;11.80;;
38379;SDS011;38377;47.418;18.882;2024-01-06T01:09:10;17.00;;;11.77;;
38379;SDS011;38377;47.418;18.882;2024-01-06T01:11:38;20.35;;;13.02;;
38379;SDS011;38377;47.418;18.882;2024-01-06T01:14:04;17.80;;;12.88;;
38379;SDS011;38377;47.418;18.882;2024-01-06T01:16:29;20.55;;;12.77;;
38379;SDS011;38377;47.418;18.882;2024-01-06T01:18:57;20.58;;;12.35;;
38379;SDS011;38377;47.418;18.882;2024-01-06T01:21:31;21.10;;;13.50;;
38379;SDS011;38377;47.418;18.882;2024-01-06T01:24:01;20.23;;;12.95;;
38379;SDS011;38377;47.418;18.882;2024-01-06T01:29:20;24.30;;;13.88;;
38379;SDS011;38377;47.418;18.882;2024-01-06T01:32:33;19.50;;;13.85;;
38379;SDS011;38377;47.418;18.882;2024-01-06T01:35:34;20.38;;;13.75;;
38379;SDS011;38377;47.418;18.882;2024-01-06T01:38:17;19.63;;;13.73;;
38379;SDS011;38377;47.418;18.882;2024-01-06T01:40:55;20.90;;;13.75;;
38379;SDS011;38377;47.418;18.882;2024-01-06T01:43:27;21.42;;;12.98;;
38379;SDS011;38377;47.418;18.882;2024-01-06T01:46:09;19.95;;;13.20;;
38379;SDS011;38377;47.418;18.882;2024-01-06T01:48:49;18.48;;;13.40;;
38379;SDS011;38377;47.418;18.882;2024-01-06T01:51:21;20.25;;;13.45;;
38379;SDS011;38377;47.418;18.882;2024-01-06T01:53:49;21.85;;;13.77;;
38379;SDS011;38377;47.418;18.882;2024-01-06T02:21:11;19.80;;;12.85;;
38379;SDS011;38377;47.418;18.882;2024-01-06T02:23:45;21.35;;;13.80;;
38379;SDS011;38377;47.418;18.882;2024-01-06T02:26:13;18.90;;;12.73;;
38379;SDS011;38377;47.418;18.882;2024-01-06T02:28:40;19.33;;;12.57;;
38379;SDS011;38377;47.418;18.882;2024-01-06T02:34:09;21.67;;;13.27;;
38379;SDS011;38377;47.418;18.882;2024-01-06T02:36:35;21.10;;;13.10;;
38379;SDS011;38377;47.418;18.882;2024-01-06T02:39:14;19.75;;;12.88;;
38379;SDS011;38377;47.418;18.882;2024-01-06T02:41:49;18.13;;;12.68;;
38379;SDS011;38377;47.418;18.882;2024-01-06T02:44:38;18.92;;;12.77;;
38379;SDS011;38377;47.418;18.882;2024-01-06T02:47:06;22.95;;;13.20;;
38379;SDS011;38377;47.418;18.882;2024-01-06T02:49:58;19.90;;;13.35;;
38379;SDS011;38377;47.418;18.882;2024-01-06T02:52:26;22.27;;;13.85;;
38379;SDS011;38377;47.418;18.882;2024-01-06T02:54:52;19.27;;;13.18;;
38379;SDS011;38377;47.418;18.882;2024-01-06T02:57:18;19.58;;;13.00;;
38379;SDS011;38377;47.418;18.882;2024-01-06T02:59:46;21.15;;;13.43;;
38379;SDS011;38377;47.418;18.882;2024-01-06T03:02:11;20.50;;;13.27;;
38379;SDS011;38377;47.418;18.882;2024-01-06T03:04:42;21.30;;;13.85;;
38379;SDS011;38377;47.418;18.882;2024-01-06T03:07:08;22.63;;;12.10;;
38379;SDS011;38377;47.418;18.882;2024-01-06T03:09:33;20.83;;;12.77;;
38379;SDS011;38377;47.418;18.882;2024-01-06T03:12:05;19.75;;;12.60;;
38379;SDS011;38377;47.418;18.882;2024-01-06T03:17:50;19.58;;;12.70;;
38379;SDS011;38377;47.418;18.882;2024-01-06T03:20:15;20.80;;;13.65;;
38379;SDS011;38377;47.418;18.882;2024-01-06T03:31:24;21.20;;;12.82;;
38379;SDS011;38377;47.418;18.882;2024-01-06T03:33:52;22.25;;;14.32;;
38379;SDS011;38377;47.418;18.882;2024-01-06T03:36:27;20.40;;;14.00;;
38379;SDS011;38377;47.418;18.882;2024-01-06T03:53:21;20.55;;;13.88;;
38379;SDS011;38377;47.418;18.882;2024-01-06T03:55:57;21.10;;;13.35;;
38379;SDS011;38377;47.418;18.882;2024-01-06T03:58:31;20.95;;;13.73;;
38379;SDS011;38377;47.418;18.882;2024-01-06T04:01:04;20.67;;;14.55;;
38379;SDS011;38377;47.418;18.882;2024-01-06T04:07:51;22.33;;;14.77;;
38379;SDS011;38377;47.418;18.882;2024-01-06T04:13:18;24.52;;;15.10;;
38379;SDS011;38377;47.418;18.882;2024-01-06T04:15:50;25.45;;;15.43;;
38379;SDS011;38377;47.418;18.882;2024-01-06T04:18:21;22.77;;;14.45;;
38379;SDS011;38377;47.418;18.882;2024-01-06T04:20:47;22.48;;;14.85;;
38379;SDS011;38377;47.418;18.882;2024-01-06T04:23:12;20.00;;;13.70;;
38379;SDS011;38377;47.418;18.882;2024-01-06T04:25:38;21.10;;;14.30;;
38379;SDS011;38377;47.418;18.882;2024-01-06T04:28:09;24.75;;;15.48;;
38379;SDS011;38377;47.418;18.882;2024-01-06T04:49:57;29.08;;;18.20;;
38379;SDS011;38377;47.418;18.882;2024-01-06T04:52:28;27.63;;;18.17;;
38379;SDS011;38377;47.418;18.882;2024-01-06T04:54:54;27.83;;;16.92;;
38379;SDS011;38377;47.418;18.882;2024-01-06T05:00:37;27.85;;;18.20;;
38379;SDS011;38377;47.418;18.882;2024-01-06T05:03:08;28.40;;;18.33;;
38379;SDS011;38377;47.418;18.882;2024-01-06T05:05:34;26.75;;;17.40;;
38379;SDS011;38377;47.418;18.882;2024-01-06T05:07:59;27.33;;;18.90;;
38379;SDS011;38377;47.418;18.882;2024-01-06T05:10:25;23.80;;;16.83;;
38379;SDS011;38377;47.418;18.882;2024-01-06T05:16:13;29.42;;;18.13;;
38379;SDS011;38377;47.418;18.882;2024-01-06T05:18:46;27.90;;;18.70;;
38379;SDS011;38377;47.418;18.882;2024-01-06T05:24:11;30.08;;;18.52;;
38379;SDS011;38377;47.418;18.882;2024-01-06T05:37:34;26.13;;;17.27;;
38379;SDS011;38377;47.418;18.882;2024-01-06T05:40:06;29.08;;;18.48;;
38379;SDS011;38377;47.418;18.882;2024-01-06T05:42:34;27.08;;;17.23;;
38379;SDS011;38377;47.418;18.882;2024-01-06T05:45:03;27.08;;;17.98;;
38379;SDS011;38377;47.418;18.882;2024-01-06T05:47:29;30.25;;;18.27;;
38379;SDS011;38377;47.418;18.882;2024-01-06T05:49:55;28.17;;;17.67;;
38379;SDS011;38377;47.418;18.882;2024-01-06T05:52:37;24.27;;;17.33;;
38379;SDS011;38377;47.418;18.882;2024-01-06T05:55:20;29.48;;;18.25;;
38379;SDS011;38377;47.418;18.882;2024-01-06T05:57:59;30.52;;;19.40;;
38379;SDS011;38377;47.418;18.882;2024-01-06T06:00:34;30.23;;;19.60;;
38379;SDS011;38377;47.418;18.882;2024-01-06T06:03:06;31.27;;;19.27;;
38379;SDS011;38377;47.418;18.882;2024-01-06T06:05:32;28.90;;;18.85;;
38379;SDS011;38377;47.418;18.882;2024-01-06T06:07:58;33.83;;;19.10;;
38379;SDS011;38377;47.418;18.882;2024-01-06T06:10:23;28.23;;;18.38;;
38379;SDS011;38377;47.418;18.882;2024-01-06T06:12:55;30.83;;;19.13;;
38379;SDS011;38377;47.418;18.882;2024-01-06T06:15:20;28.08;;;18.48;;
38379;SDS011;38377;47.418;18.882;2024-01-06T06:17:46;34.38;;;20.38;;
38379;SDS011;38377;47.418;18.882;2024-01-06T06:20:12;31.20;;;18.85;;
38379;SDS011;38377;47.418;18.882;2024-01-06T06:22:37;33.85;;;18.63;;
38379;SDS011;38377;47.418;18.882;2024-01-06T06:25:03;30.85;;;20.48;;
38379;SDS011;38377;47.418;18.882;2024-01-06T06:27:29;36.72;;;21.35;;
38379;SDS011;38377;47.418;18.882;2024-01-06T06:29:55;37.90;;;20.75;;
38379;SDS011;38377;47.418;18.882;2024-01-06T06:32:23;31.60;;;18.83;;
38379;SDS011;38377;47.418;18.882;2024-01-06T06:34:50;30.80;;;17.58;;
38379;SDS011;38377;47.418;18.882;2024-01-06T06:37:15;28.27;;;17.88;;
38379;SDS011;38377;47.418;18.882;2024-01-06T06:39:41;30.92;;;18.98;;
38379;SDS011;38377;47.418;18.882;2024-01-06T06:42:09;31.77;;;19.38;;
38379;SDS011;38377;47.418;18.882;2024-01-06T06:44:34;33.47;;;20.77;;
38379;SDS011;38377;47.418;18.882;2024-01-06T06:47:00;44.25;;;20.90;;
38379;SDS011;38377;47.418;18.882;2024-01-06T06:49:26;30.13;;;18.95;;
38379;SDS011;38377;47.418;18.882;2024-01-06T06:51:51;32.53;;;19.77;;
38379;SDS011;38377;47.418;18.882;2024-01-06T06:54:17;31.73;;;19.73;;
38379;SDS011;38377;47.418;18.882;2024-01-06T06:56:43;29.70;;;17.98;;
38379;SDS011;38377;47.418;18.882;2024-01-06T06:59:09;29.70;;;20.00;;
38379;SDS011;38377;47.418;18.882;2024-01-06T07:01:34;27.63;;;18.42;;
38379;SDS011;38377;47.418;18.882;2024-01-06T07:04:00;42.25;;;20.83;;
38379;SDS011;38377;47.418;18.882;2024-01-06T07:06:29;31.17;;;19.45;;
38379;SDS011;38377;47.418;18.882;2024-01-06T07:08:55;33.17;;;20.52;;
38379;SDS011;38377;47.418;18.882;2024-01-06T07:11:21;29.65;;;18.83;;
38379;SDS011;38377;47.418;18.882;2024-01-06T07:13:47;30.90;;;20.25;;
38379;SDS011;38377;47.418;18.882;2024-01-06T07:16:14;32.38;;;19.33;;
38379;SDS011;38377;47.418;18.882;2024-01-06T07:18:40;31.23;;;18.65;;
38379;SDS011;38377;47.418;18.882;2024-01-06T07:21:06;35.08;;;19.65;;
38379;SDS011;38377;47.418;18.882;2024-01-06T07:23:32;35.58;;;21.15;;
38379;SDS011;38377;47.418;18.882;2024-01-06T07:25:58;39.05;;;23.20;;
38379;SDS011;38377;47.418;18.882;2024-01-06T07:28:24;36.20;;;22.45;;
38379;SDS011;38377;47.418;18.882;2024-01-06T07:30:50;32.55;;;19.25;;
38379;SDS011;38377;47.418;18.882;2024-01-06T07:33:16;37.10;;;20.98;;
38379;SDS011;38377;47.418;18.882;2024-01-06T07:35:44;31.50;;;19.98;;
38379;SDS011;38377;47.418;18.882;2024-01-06T07:38:12;32.10;;;19.58;;
38379;SDS011;38377;47.418;18.882;2024-01-06T07:40:44;31.27;;;19.65;;
38379;SDS011;38377;47.418;18.882;2024-01-06T07:46:06;30.17;;;18.58;;
38379;SDS011;38377;47.418;18.882;2024-01-06T07:48:32;37.03;;;20.63;;
38379;SDS011;38377;47.418;18.882;2024-01-06T07:51:00;41.42;;;22.40;;
38379;SDS011;38377;47.418;18.882;2024-01-06T07:53:29;32.95;;;19.20;;
38379;SDS011;38377;47.418;18.882;2024-01-06T07:55:55;31.15;;;19.25;;
38379;SDS011;38377;47.418;18.882;2024-01-06T07:58:24;36.33;;;19.75;;
38379;SDS011;38377;47.418;18.882;2024-01-06T08:00:52;29.48;;;18.35;;
38379;SDS011;38377;47.418;18.882;2024-01-06T08:03:18;31.90;;;17.83;;
38379;SDS011;38377;47.418;18.882;2024-01-06T08:05:44;31.60;;;17.50;;
38379;SDS011;38377;47.418;18.882;2024-01-06T08:08:09;31.92;;;18.42;;
38379;SDS011;38377;47.418;18.882;2024-01-06T08:10:36;32.17;;;18.63;;
38379;SDS011;38377;47.418;18.882;2024-01-06T08:13:01;30.65;;;18.20;;
38379;SDS011;38377;47.418;18.882;2024-01-06T08:15:27;30.38;;;17.17;;
38379;SDS011;38377;47.418;18.882;2024-01-06T08:17:53;25.75;;;16.27;;
38379;SDS011;38377;47.418;18.882;2024-01-06T08:20:18;26.77;;;16.55;;
38379;SDS011;38377;47.418;18.882;2024-01-06T08:22:44;28.05;;;17.13;;
38379;SDS011;38377;47.418;18.882;2024-01-06T08:25:09;34.08;;;18.42;;
38379;SDS011;38377;47.418;18.882;2024-01-06T08:27:35;27.30;;;16.63;;
38379;SDS011;38377;47.418;18.882;2024-01-06T08:30:04;35.85;;;18.00;;
38379;SDS011;38377;47.418;18.882;2024-01-06T08:32:31;30.25;;;17.45;;
38379;SDS011;38377;47.418;18.882;2024-01-06T08:34:57;29.27;;;18.63;;
38379;SDS011;38377;47.418;18.882;2024-01-06T08:37:22;27.52;;;17.00;;
38379;SDS011;38377;47.418;18.882;2024-01-06T08:39:48;28.42;;;17.40;;
38379;SDS011;38377;47.418;18.882;2024-01-06T08:42:13;28.20;;;15.70;;
38379;SDS011;38377;47.418;18.882;2024-01-06T08:44:39;28.13;;;17.40;;
38379;SDS011;38377;47.418;18.882;2024-01-06T08:47:08;25.05;;;16.15;;
38379;SDS011;38377;47.418;18.882;2024-01-06T08:49:34;23.75;;;15.40;;
38379;SDS011;38377;47.418;18.882;2024-01-06T08:52:00;23.67;;;15.73;;
38379;SDS011;38377;47.418;18.882;2024-01-06T08:54:25;25.15;;;15.57;;
38379;SDS011;38377;47.418;18.882;2024-01-06T08:56:51;25.15;;;14.50;;
38379;SDS011;38377;47.418;18.882;2024-01-06T08:59:17;23.83;;;15.48;;
38379;SDS011;38377;47.418;18.882;2024-01-06T09:01:42;27.02;;;16.35;;
38379;SDS011;38377;47.418;18.882;2024-01-06T09:04:08;28.95;;;16.42;;
38379;SDS011;38377;47.418;18.882;2024-01-06T09:06:38;27.45;;;16.88;;
38379;SDS011;38377;47.418;18.882;2024-01-06T09:09:03;23.15;;;15.10;;
38379;SDS011;38377;47.418;18.882;2024-01-06T09:11:29;24.02;;;15.25;;
38379;SDS011;38377;47.418;18.882;2024-01-06T09:13:54;24.20;;;14.88;;
38379;SDS011;38377;47.418;18.882;2024-01-06T09:16:20;25.08;;;15.32;;
38379;SDS011;38377;47.418;18.882;2024-01-06T09:23:56;24.45;;;16.33;;
38379;SDS011;38377;47.418;18.882;2024-01-06T09:26:38;25.30;;;15.93;;
38379;SDS011;38377;47.418;18.882;2024-01-06T09:32:01;25.10;;;17.13;;
38379;SDS011;38377;47.418;18.882;2024-01-06T09:34:27;23.58;;;15.98;;
38379;SDS011;38377;47.418;18.882;2024-01-06T09:36:56;24.73;;;16.48;;
38379;SDS011;38377;47.418;18.882;2024-01-06T09:39:21;23.13;;;15.40;;
38379;SDS011;38377;47.418;18.882;2024-01-06T09:41:47;29.00;;;17.98;;
38379;SDS011;38377;47.418;18.882;2024-01-06T09:44:12;28.58;;;17.83;;
38379;SDS011;38377;47.418;18.882;2024-01-06T09:49:56;27.13;;;17.60;;
38379;SDS011;38377;47.418;18.882;2024-01-06T09:52:34;33.00;;;18.05;;
38379;SDS011;38377;47.418;18.882;2024-01-06T09:55:44;26.80;;;16.88;;
38379;SDS011;38377;47.418;18.882;2024-01-06T09:58:22;27.45;;;17.15;;
38379;SDS011;38377;47.418;18.882;2024-01-06T10:14:54;24.95;;;16.08;;
38379;SDS011;38377;47.418;18.882;2024-01-06T10:20:30;32.72;;;17.30;;
38379;SDS011;38377;47.418;18.882;2024-01-06T10:22:56;29.67;;;17.27;;
38379;SDS011;38377;47.418;18.882;2024-01-06T10:25:47;30.50;;;16.80;;
38379;SDS011;38377;47.418;18.882;2024-01-06T10:28:13;32.42;;;17.75;;
38379;SDS011;38377;47.418;18.882;2024-01-06T10:30:41;27.58;;;16.38;;
38379;SDS011;38377;47.418;18.882;2024-01-06T10:33:10;28.65;;;15.48;;
38379;SDS011;38377;47.418;18.882;2024-01-06T10:35:38;25.52;;;15.90;;
38379;SDS011;38377;47.418;18.882;2024-01-06T10:38:04;25.83;;;15.30;;
38379;SDS011;38377;47.418;18.882;2024-01-06T10:40:33;26.85;;;16.33;;
38379;SDS011;38377;47.418;18.882;2024-01-06T10:43:08;29.58;;;17.08;;
38379;SDS011;38377;47.418;18.882;2024-01-06T10:45:57;32.60;;;18.42;;
38379;SDS011;38377;47.418;18.882;2024-01-06T10:48:40;27.50;;;16.75;;
38379;SDS011;38377;47.418;18.882;2024-01-06T10:51:12;26.67;;;15.93;;
38379;SDS011;38377;47.418;18.882;2024-01-06T10:53:40;25.88;;;16.10;;
38379;SDS011;38377;47.418;18.882;2024-01-06T12:13:36;29.67;;;17.00;;
38379;SDS011;38377;47.418;18.882;2024-01-06T12:16:02;27.42;;;17.33;;
38379;SDS011;38377;47.418;18.882;2024-01-06T12:18:28;28.13;;;17.75;;
38379;SDS011;38377;47.418;18.882;2024-01-06T12:20:53;32.33;;;18.33;;
38379;SDS011;38377;47.418;18.882;2024-01-06T12:23:28;25.67;;;16.92;;
38379;SDS011;38377;47.418;18.882;2024-01-06T12:25:54;28.33;;;17.20;;
38379;SDS011;38377;47.418;18.882;2024-01-06T12:28:21;32.85;;;18.27;;
38379;SDS011;38377;47.418;18.882;2024-01-06T12:30:46;26.60;;;17.23;;
38379;SDS011;38377;47.418;18.882;2024-01-06T12:33:12;26.20;;;16.63;;
38379;SDS011;38377;47.418;18.882;2024-01-06T12:35:39;26.38;;;16.92;;
38379;SDS011;38377;47.418;18.882;2024-01-06T12:38:05;25.65;;;16.98;;
38379;SDS011;38377;47.418;18.882;2024-01-06T12:40:34;28.42;;;16.98;;
38379;SDS011;38377;47.418;18.882;2024-01-06T12:43:02;30.30;;;18.88;;
38379;SDS011;38377;47.418;18.882;2024-01-06T12:45:28;27.40;;;16.83;;
38379;SDS011;38377;47.418;18.882;2024-01-06T12:47:54;28.92;;;17.00;;
38379;SDS011;38377;47.418;18.882;2024-01-06T12:50:20;29.35;;;18.70;;
38379;SDS011;38377;47.418;18.882;2024-01-06T12:52:48;29.77;;;19.00;;
38379;SDS011;38377;47.418;18.882;2024-01-06T12:55:14;32.60;;;19.13;;
38379;SDS011;38377;47.418;18.882;2024-01-06T12:57:40;30.05;;;18.45;;
38379;SDS011;38377;47.418;18.882;2024-01-06T13:00:07;31.75;;;19.13;;
38379;SDS011;38377;47.418;18.882;2024-01-06T13:02:36;34.92;;;20.88;;
38379;SDS011;38377;47.418;18.882;2024-01-06T13:05:02;30.70;;;19.80;;
38379;SDS011;38377;47.418;18.882;2024-01-06T13:07:28;35.30;;;19.85;;
38379;SDS011;38377;47.418;18.882;2024-01-06T13:10:03;36.67;;;20.10;;
38379;SDS011;38377;47.418;18.882;2024-01-06T13:12:32;34.22;;;21.20;;
38379;SDS011;38377;47.418;18.882;2024-01-06T13:14:58;36.05;;;20.95;;
38379;SDS011;38377;47.418;18.882;2024-01-06T13:17:24;35.28;;;22.70;;
38379;SDS011;38377;47.418;18.882;2024-01-06T13:19:50;34.47;;;20.90;;
38379;SDS011;38377;47.418;18.882;2024-01-06T13:38:56;35.75;;;20.45;;
38379;SDS011;38377;47.418;18.882;2024-01-06T13:41:43;32.22;;;18.75;;
38379;SDS011;38377;47.418;18.882;2024-01-06T13:44:29;31.67;;;18.50;;
38379;SDS011;38377;47.418;18.882;2024-01-06T13:46:55;30.92;;;18.73;;
38379;SDS011;38377;47.418;18.882;2024-01-06T13:49:24;29.42;;;18.17;;
38379;SDS011;38377;47.418;18.882;2024-01-06T13:51:49;29.70;;;18.25;;
38379;SDS011;38377;47.418;18.882;2024-01-06T13:54:15;30.90;;;17.23;;
38379;SDS011;38377;47.418;18.882;2024-01-06T13:56:41;27.85;;;17.25;;
38379;SDS011;38377;47.418;18.882;2024-01-06T13:59:07;28.48;;;17.38;;
38379;SDS011;38377;47.418;18.882;2024-01-06T14:01:36;28.63;;;16.17;;
38379;SDS011;38377;47.418;18.882;2024-01-06T14:07:04;26.42;;;16.20;;
38379;SDS011;38377;47.418;18.882;2024-01-06T14:09:29;26.88;;;16.35;;
38379;SDS011;38377;47.418;18.882;2024-01-06T14:11:55;31.23;;;16.58;;
38379;SDS011;38377;47.418;18.882;2024-01-06T14:14:20;25.65;;;15.73;;
38379;SDS011;38377;47.418;18.882;2024-01-06T14:16:47;27.05;;;16.83;;
38379;SDS011;38377;47.418;18.882;2024-01-06T14:19:13;24.23;;;13.93;;
38379;SDS011;38377;47.418;18.882;2024-01-06T14:21:39;23.27;;;14.73;;
38379;SDS011;38377;47.418;18.882;2024-01-06T14:24:05;28.95;;;15.82;;
38379;SDS011;38377;47.418;18.882;2024-01-06T14:26:32;22.65;;;14.57;;
38379;SDS011;38377;47.418;18.882;2024-01-06T14:29:01;21.50;;;13.90;;
38379;SDS011;38377;47.418;18.882;2024-01-06T14:34:18;22.58;;;15.05;;
38379;SDS011;38377;47.418;18.882;2024-01-06T14:36:44;21.75;;;14.80;;
38379;SDS011;38377;47.418;18.882;2024-01-06T14:39:15;26.50;;;16.00;;
38379;SDS011;38377;47.418;18.882;2024-01-06T14:41:44;27.63;;;16.00;;
38379;SDS011;38377;47.418;18.882;2024-01-06T14:44:10;23.45;;;14.80;;
38379;SDS011;38377;47.418;18.882;2024-01-06T14:46:38;28.35;;;16.45;;
38379;SDS011;38377;47.418;18.882;2024-01-06T14:49:16;24.25;;;14.63;;
38379;SDS011;38377;47.418;18.882;2024-01-06T14:51:42;24.13;;;14.60;;
38379;SDS011;38377;47.418;18.882;2024-01-06T14:54:09;22.13;;;14.93;;
38379;SDS011;38377;47.418;18.882;2024-01-06T14:56:47;19.85;;;14.00;;
38379;SDS011;38377;47.418;18.882;2024-01-06T14:59:13;26.02;;;16.30;;
38379;SDS011;38377;47.418;18.882;2024-01-06T15:01:44;20.50;;;14.25;;
38379;SDS011;38377;47.418;18.882;2024-01-06T15:04:09;23.60;;;14.07;;
38379;SDS011;38377;47.418;18.882;2024-01-06T15:06:35;23.65;;;15.25;;
38379;SDS011;38377;47.418;18.882;2024-01-06T15:09:01;26.25;;;16.85;;
38379;SDS011;38377;47.418;18.882;2024-01-06T15:11:26;28.85;;;16.83;;
38379;SDS011;38377;47.418;18.882;2024-01-06T15:13:55;25.58;;;15.68;;
38379;SDS011;38377;47.418;18.882;2024-01-06T15:16:21;22.92;;;14.48;;
38379;SDS011;38377;47.418;18.882;2024-01-06T15:18:47;21.77;;;14.98;;
38379;SDS011;38377;47.418;18.882;2024-01-06T15:21:12;24.73;;;15.68;;
38379;SDS011;38377;47.418;18.882;2024-01-06T15:23:40;24.75;;;14.90;;
38379;SDS011;38377;47.418;18.882;2024-01-06T15:26:05;22.75;;;14.52;;
38379;SDS011;38377;47.418;18.882;2024-01-06T15:28:38;23.23;;;15.02;;
38379;SDS011;38377;47.418;18.882;2024-01-06T15:31:04;25.77;;;16.25;;
38379;SDS011;38377;47.418;18.882;2024-01-06T15:33:29;31.00;;;18.80;;
38379;SDS011;38377;47.418;18.882;2024-01-06T15:35:55;39.47;;;20.25;;
38379;SDS011;38377;47.418;18.882;2024-01-06T15:38:21;30.73;;;16.80;;
38379;SDS011;38377;47.418;18.882;2024-01-06T15:40:58;25.05;;;14.73;;
38379;SDS011;38377;47.418;18.882;2024-01-06T15:43:27;26.50;;;16.10;;
38379;SDS011;38377;47.418;18.882;2024-01-06T15:46:08;21.95;;;13.38;;
38379;SDS011;38377;47.418;18.882;2024-01-06T15:48:34;26.35;;;14.15;;
38379;SDS011;38377;47.418;18.882;2024-01-06T15:51:01;25.33;;;14.65;;
38379;SDS011;38377;47.418;18.882;2024-01-06T15:53:26;25.40;;;15.05;;
38379;SDS011;38377;47.418;18.882;2024-01-06T15:55:52;24.88;;;16.10;;
38379;SDS011;38377;47.418;18.882;2024-01-06T15:58:18;25.00;;;15.73;;
38379;SDS011;38377;47.418;18.882;2024-01-06T16:00:44;24.50;;;14.73;;
38379;SDS011;38377;47.418;18.882;2024-01-06T16:03:09;24.45;;;14.98;;
38379;SDS011;38377;47.418;18.882;2024-01-06T16:05:35;28.27;;;15.45;;
38379;SDS011;38377;47.418;18.882;2024-01-06T16:08:03;23.40;;;14.98;;
38379;SDS011;38377;47.418;18.882;2024-01-06T16:10:30;20.88;;;13.50;;
38379;SDS011;38377;47.418;18.882;2024-01-06T16:12:55;23.80;;;14.68;;
38379;SDS011;38377;47.418;18.882;2024-01-06T16:15:24;27.48;;;16.08;;
38379;SDS011;38377;47.418;18.882;2024-01-06T16:17:50;26.27;;;16.23;;
38379;SDS011;38377;47.418;18.882;2024-01-06T16:20:16;25.48;;;16.23;;
38379;SDS011;38377;47.418;18.882;2024-01-06T16:22:41;24.67;;;15.07;;
38379;SDS011;38377;47.418;18.882;2024-01-06T16:25:07;28.90;;;17.17;;
38379;SDS011;38377;47.418;18.882;2024-01-06T16:27:39;24.73;;;15.25;;
38379;SDS011;38377;47.418;18.882;2024-01-06T16:30:37;24.42;;;15.63;;
38379;SDS011;38377;47.418;18.882;2024-01-06T16:33:06;25.98;;;16.33;;
38379;SDS011;38377;47.418;18.882;2024-01-06T16:38:38;27.75;;;16.42;;
38379;SDS011;38377;47.418;18.882;2024-01-06T16:44:12;26.10;;;15.75;;
38379;SDS011;38377;47.418;18.882;2024-01-06T16:46:41;23.38;;;15.40;;
38379;SDS011;38377;47.418;18.882;2024-01-06T16:49:07;32.17;;;17.90;;
38379;SDS011;38377;47.418;18.882;2024-01-06T16:51:35;30.17;;;16.90;;
38379;SDS011;38377;47.418;18.882;2024-01-06T16:54:11;27.38;;;17.92;;
38379;SDS011;38377;47.418;18.882;2024-01-06T16:56:46;28.30;;;16.80;;
38379;SDS011;38377;47.418;18.882;2024-01-06T16:59:12;28.85;;;17.05;;
38379;SDS011;38377;47.418;18.882;2024-01-06T17:04:10;25.63;;;16.30;;
38379;SDS011;38377;47.418;18.882;2024-01-06T17:06:37;28.92;;;17.17;;
38379;SDS011;38377;47.418;18.882;2024-01-06T17:09:03;30.25;;;17.83;;
38379;SDS011;38377;47.418;18.882;2024-01-06T17:11:28;26.15;;;16.95;;
38379;SDS011;38377;47.418;18.882;2024-01-06T17:13:54;32.20;;;18.13;;
38379;SDS011;38377;47.418;18.882;2024-01-06T17:16:20;29.58;;;17.65;;
38379;SDS011;38377;47.418;18.882;2024-01-06T17:18:45;30.60;;;17.05;;
38379;SDS011;38377;47.418;18.882;2024-01-06T17:21:11;27.38;;;16.50;;
38379;SDS011;38377;47.418;18.882;2024-01-06T17:23:40;27.92;;;17.67;;
38379;SDS011;38377;47.418;18.882;2024-01-06T17:26:06;29.45;;;17.70;;
38379;SDS011;38377;47.418;18.882;2024-01-06T17:28:31;29.10;;;17.88;;
38379;SDS011;38377;47.418;18.882;2024-01-06T17:30:57;26.58;;;16.83;;
38379;SDS011;38377;47.418;18.882;2024-01-06T17:33:22;29.45;;;16.63;;
38379;SDS011;38377;47.418;18.882;2024-01-06T17:35:48;32.30;;;17.05;;
38379;SDS011;38377;47.418;18.882;2024-01-06T17:38:14;27.73;;;17.08;;
38379;SDS011;38377;47.418;18.882;2024-01-06T17:40:39;32.35;;;18.25;;
38379;SDS011;38377;47.418;18.882;2024-01-06T17:43:05;31.17;;;16.85;;
38379;SDS011;38377;47.418;18.882;2024-01-06T17:45:31;30.85;;;17.58;;
38379;SDS011;38377;47.418;18.882;2024-01-06T17:47:56;33.30;;;18.20;;
38379;SDS011;38377;47.418;18.882;2024-01-06T17:50:22;32.38;;;17.33;;
38379;SDS011;38377;47.418;18.882;2024-01-06T17:52:48;30.67;;;18.15;;
38379;SDS011;38377;47.418;18.882;2024-01-06T17:55:16;28.95;;;18.20;;
38379;SDS011;38377;47.418;18.882;2024-01-06T17:57:42;29.75;;;18.35;;
38379;SDS011;38377;47.418;18.882;2024-01-06T18:00:08;32.28;;;18.92;;
38379;SDS011;38377;47.418;18.882;2024-01-06T18:02:34;34.10;;;20.08;;
38379;SDS011;38377;47.418;18.882;2024-01-06T18:05:00;35.10;;;19.92;;
38379;SDS011;38377;47.418;18.882;2024-01-06T18:07:25;33.67;;;19.42;;
38379;SDS011;38377;47.418;18.882;2024-01-06T18:09:54;33.85;;;20.42;;
38379;SDS011;38377;47.418;18.882;2024-01-06T18:12:21;34.03;;;20.63;;
38379;SDS011;38377;47.418;18.882;2024-01-06T18:14:47;39.15;;;20.48;;
38379;SDS011;38377;47.418;18.882;2024-01-06T18:17:15;32.03;;;19.30;;
38379;SDS011;38377;47.418;18.882;2024-01-06T18:19:54;32.92;;;18.55;;
38379;SDS011;38377;47.418;18.882;2024-01-06T18:22:25;31.98;;;18.58;;
38379;SDS011;38377;47.418;18.882;2024-01-06T18:25:01;33.80;;;20.38;;
38379;SDS011;38377;47.418;18.882;2024-01-06T18:27:52;34.78;;;19.13;;
38379;SDS011;38377;47.418;18.882;2024-01-06T18:30:21;33.42;;;19.73;;
38379;SDS011;38377;47.418;18.882;2024-01-06T18:35:49;34.17;;;18.03;;
38379;SDS011;38377;47.418;18.882;2024-01-06T18:45:58;33.83;;;19.88;;
38379;SDS011;38377;47.418;18.882;2024-01-06T18:51:38;33.78;;;20.38;;
38379;SDS011;38377;47.418;18.882;2024-01-06T18:54:13;35.22;;;19.98;;
38379;SDS011;38377;47.418;18.882;2024-01-06T18:56:52;34.20;;;18.98;;
38379;SDS011;38377;47.418;18.882;2024-01-06T18:59:25;40.05;;;21.35;;
38379;SDS011;38377;47.418;18.882;2024-01-06T19:01:51;39.28;;;21.05;;
38379;SDS011;38377;47.418;18.882;2024-01-06T19:04:17;32.13;;;18.52;;
38379;SDS011;38377;47.418;18.882;2024-01-06T19:09:57;33.83;;;18.60;;
38379;SDS011;38377;47.418;18.882;2024-01-06T19:12:23;36.85;;;19.85;;
38379;SDS011;38377;47.418;18.882;2024-01-06T19:14:58;35.25;;;21.05;;
38379;SDS011;38377;47.418;18.882;2024-01-06T19:17:29;36.75;;;18.98;;
38379;SDS011;38377;47.418;18.882;2024-01-06T19:19:54;35.67;;;18.88;;
38379;SDS011;38377;47.418;18.882;2024-01-06T19:22:26;32.03;;;19.20;;
38379;SDS011;38377;47.418;18.882;2024-01-06T19:24:52;33.40;;;19.65;;
38379;SDS011;38377;47.418;18.882;2024-01-06T19:27:19;32.08;;;18.50;;
38379;SDS011;38377;47.418;18.882;2024-01-06T19:30:05;31.70;;;17.55;;